sensor_id;sensor_type;location;lat;lon;timestamp;P1;durP1;ratioP1;P2;durP2;ratioP2
59127;SDS011;44912;52.754;5.994;2023-08-06T00:02:12;21.60;;;16.58;;
59127;SDS011;44912;52.754;5.994;2023-08-06T00:04:38;20.35;;;16.58;;
59127;SDS011;44912;52.754;5.994;2023-08-06T00:07:04;22.10;;;16.55;;
59127;SDS011;44912;52.754;5.994;2023-08-06T00:09:29;22.08;;;17.10;;
59127;SDS011;44912;52.754;5.994;2023-08-06T00:11:55;21.92;;;17.45;;
59127;SDS011;44912;52.754;5.994;2023-08-06T00:14:20;21.48;;;17.10;;
59127;SDS011;44912;52.754;5.994;2023-08-06T00:16:46;20.15;;;16.88;;
59127;SDS011;44912;52.754;5.994;2023-08-06T00:19:12;18.83;;;16.35;;
59127;SDS011;44912;52.754;5.994;2023-08-06T00:21:37;20.23;;;16.98;;
59127;SDS011;44912;52.754;5.994;2023-08-06T00:24:03;25.95;;;18.30;;
59127;SDS011;44912;52.754;5.994;2023-08-06T00:26:28;19.23;;;15.98;;
59127;SDS011;44912;52.754;5.994;2023-08-06T00:28:54;25.10;;;17.92;;
59127;SDS011;44912;52.754;5.994;2023-08-06T00:31:19;21.35;;;17.40;;
59127;SDS011;44912;52.754;5.994;2023-08-06T00:33:45;25.05;;;18.38;;
59127;SDS011;44912;52.754;5.994;2023-08-06T00:36:10;21.27;;;17.33;;
59127;SDS011;44912;52.754;5.994;2023-08-06T00:38:36;23.67;;;17.98;;
59127;SDS011;44912;52.754;5.994;2023-08-06T00:41:01;21.15;;;17.42;;
59127;SDS011;44912;52.754;5.994;2023-08-06T00:43:27;19.80;;;16.40;;
59127;SDS011;44912;52.754;5.994;2023-08-06T00:45:52;21.33;;;16.88;;
59127;SDS011;44912;52.754;5.994;2023-08-06T00:48:18;22.13;;;16.80;;
59127;SDS011;44912;52.754;5.994;2023-08-06T00:50:44;19.02;;;16.35;;
59127;SDS011;44912;52.754;5.994;2023-08-06T00:53:10;18.95;;;16.13;;
59127;SDS011;44912;52.754;5.994;2023-08-06T00:55:36;18.88;;;16.00;;
59127;SDS011;44912;52.754;5.994;2023-08-06T00:58:01;20.08;;;16.67;;
59127;SDS011;44912;52.754;5.994;2023-08-06T01:00:27;19.25;;;15.38;;
59127;SDS011;44912;52.754;5.994;2023-08-06T01:02:53;20.42;;;16.05;;
59127;SDS011;44912;52.754;5.994;2023-08-06T01:05:19;20.27;;;14.45;;
59127;SDS011;44912;52.754;5.994;2023-08-06T01:13:34;17.83;;;13.95;;
59127;SDS011;44912;52.754;5.994;2023-08-06T01:16:23;17.67;;;14.25;;
59127;SDS011;44912;52.754;5.994;2023-08-06T01:18:50;25.27;;;14.80;;
59127;SDS011;44912;52.754;5.994;2023-08-06T01:21:16;21.63;;;14.73;;
59127;SDS011;44912;52.754;5.994;2023-08-06T01:23:42;17.58;;;14.52;;
59127;SDS011;44912;52.754;5.994;2023-08-06T01:28:54;21.80;;;15.90;;
59127;SDS011;44912;52.754;5.994;2023-08-06T01:31:22;15.82;;;13.68;;
59127;SDS011;44912;52.754;5.994;2023-08-06T01:33:52;20.35;;;14.55;;
59127;SDS011;44912;52.754;5.994;2023-08-06T01:36:21;19.08;;;14.65;;
59127;SDS011;44912;52.754;5.994;2023-08-06T01:38:47;18.83;;;14.82;;
59127;SDS011;44912;52.754;5.994;2023-08-06T01:41:13;18.73;;;13.93;;
59127;SDS011;44912;52.754;5.994;2023-08-06T01:43:39;21.27;;;14.32;;
59127;SDS011;44912;52.754;5.994;2023-08-06T01:46:04;18.40;;;14.55;;
59127;SDS011;44912;52.754;5.994;2023-08-06T01:48:30;17.35;;;13.40;;
59127;SDS011;44912;52.754;5.994;2023-08-06T01:50:55;18.75;;;13.93;;
59127;SDS011;44912;52.754;5.994;2023-08-06T01:53:21;18.98;;;14.05;;
59127;SDS011;44912;52.754;5.994;2023-08-06T01:55:49;16.95;;;13.27;;
59127;SDS011;44912;52.754;5.994;2023-08-06T01:58:15;16.92;;;13.48;;
59127;SDS011;44912;52.754;5.994;2023-08-06T02:00:41;16.42;;;13.10;;
59127;SDS011;44912;52.754;5.994;2023-08-06T02:03:06;15.63;;;12.48;;
59127;SDS011;44912;52.754;5.994;2023-08-06T02:05:32;17.58;;;12.85;;
59127;SDS011;44912;52.754;5.994;2023-08-06T02:07:58;15.10;;;11.80;;
59127;SDS011;44912;52.754;5.994;2023-08-06T02:10:23;15.30;;;12.95;;
59127;SDS011;44912;52.754;5.994;2023-08-06T02:12:49;15.88;;;12.25;;
59127;SDS011;44912;52.754;5.994;2023-08-06T02:15:14;17.52;;;12.98;;
59127;SDS011;44912;52.754;5.994;2023-08-06T02:17:40;16.00;;;12.55;;
59127;SDS011;44912;52.754;5.994;2023-08-06T02:20:06;16.48;;;12.68;;
59127;SDS011;44912;52.754;5.994;2023-08-06T02:22:31;14.77;;;12.15;;
59127;SDS011;44912;52.754;5.994;2023-08-06T02:24:58;15.82;;;12.40;;
59127;SDS011;44912;52.754;5.994;2023-08-06T02:27:24;14.63;;;11.30;;
59127;SDS011;44912;52.754;5.994;2023-08-06T02:29:49;17.58;;;11.88;;
59127;SDS011;44912;52.754;5.994;2023-08-06T02:32:15;16.55;;;12.48;;
59127;SDS011;44912;52.754;5.994;2023-08-06T02:34:40;15.98;;;12.10;;
59127;SDS011;44912;52.754;5.994;2023-08-06T02:37:06;16.40;;;12.43;;
59127;SDS011;44912;52.754;5.994;2023-08-06T02:39:31;15.65;;;11.90;;
59127;SDS011;44912;52.754;5.994;2023-08-06T02:41:58;18.50;;;12.85;;
59127;SDS011;44912;52.754;5.994;2023-08-06T02:44:26;16.42;;;12.23;;
59127;SDS011;44912;52.754;5.994;2023-08-06T02:46:52;18.65;;;13.27;;
59127;SDS011;44912;52.754;5.994;2023-08-06T02:49:18;20.75;;;14.75;;
59127;SDS011;44912;52.754;5.994;2023-08-06T02:51:46;18.45;;;13.50;;
59127;SDS011;44912;52.754;5.994;2023-08-06T02:54:12;18.65;;;14.65;;
59127;SDS011;44912;52.754;5.994;2023-08-06T02:56:37;17.63;;;13.27;;
59127;SDS011;44912;52.754;5.994;2023-08-06T02:59:03;17.58;;;13.52;;
59127;SDS011;44912;52.754;5.994;2023-08-06T03:01:29;22.00;;;13.30;;
59127;SDS011;44912;52.754;5.994;2023-08-06T03:03:54;18.38;;;13.93;;
59127;SDS011;44912;52.754;5.994;2023-08-06T03:06:20;18.90;;;13.50;;
59127;SDS011;44912;52.754;5.994;2023-08-06T03:08:45;18.25;;;12.55;;
59127;SDS011;44912;52.754;5.994;2023-08-06T03:11:11;18.60;;;13.05;;
59127;SDS011;44912;52.754;5.994;2023-08-06T03:13:36;20.50;;;14.05;;
59127;SDS011;44912;52.754;5.994;2023-08-06T03:16:02;17.80;;;13.40;;
59127;SDS011;44912;52.754;5.994;2023-08-06T03:18:28;18.67;;;13.43;;
59127;SDS011;44912;52.754;5.994;2023-08-06T03:20:53;17.83;;;12.48;;
59127;SDS011;44912;52.754;5.994;2023-08-06T03:23:19;21.20;;;14.05;;
59127;SDS011;44912;52.754;5.994;2023-08-06T03:25:45;18.38;;;12.82;;
59127;SDS011;44912;52.754;5.994;2023-08-06T03:28:11;19.45;;;13.85;;
59127;SDS011;44912;52.754;5.994;2023-08-06T03:30:37;19.67;;;14.05;;
59127;SDS011;44912;52.754;5.994;2023-08-06T03:33:03;18.17;;;13.57;;
59127;SDS011;44912;52.754;5.994;2023-08-06T03:35:28;18.33;;;13.73;;
59127;SDS011;44912;52.754;5.994;2023-08-06T03:37:54;22.90;;;15.35;;
59127;SDS011;44912;52.754;5.994;2023-08-06T03:40:19;17.90;;;13.63;;
59127;SDS011;44912;52.754;5.994;2023-08-06T03:42:45;18.95;;;13.52;;
59127;SDS011;44912;52.754;5.994;2023-08-06T03:45:10;19.73;;;13.43;;
59127;SDS011;44912;52.754;5.994;2023-08-06T03:47:36;19.23;;;14.27;;
59127;SDS011;44912;52.754;5.994;2023-08-06T03:50:02;19.05;;;13.43;;
59127;SDS011;44912;52.754;5.994;2023-08-06T03:52:27;20.83;;;14.75;;
59127;SDS011;44912;52.754;5.994;2023-08-06T03:54:53;16.02;;;13.40;;
59127;SDS011;44912;52.754;5.994;2023-08-06T03:57:18;20.60;;;13.20;;
59127;SDS011;44912;52.754;5.994;2023-08-06T03:59:44;17.92;;;13.55;;
59127;SDS011;44912;52.754;5.994;2023-08-06T04:02:09;19.98;;;14.50;;
59127;SDS011;44912;52.754;5.994;2023-08-06T04:04:35;16.25;;;12.52;;
59127;SDS011;44912;52.754;5.994;2023-08-06T04:07:00;18.65;;;13.40;;
59127;SDS011;44912;52.754;5.994;2023-08-06T04:09:28;18.00;;;12.52;;
59127;SDS011;44912;52.754;5.994;2023-08-06T04:11:54;22.38;;;14.60;;
59127;SDS011;44912;52.754;5.994;2023-08-06T04:14:19;16.83;;;13.23;;
59127;SDS011;44912;52.754;5.994;2023-08-06T04:16:45;21.83;;;13.88;;
59127;SDS011;44912;52.754;5.994;2023-08-06T04:19:10;18.88;;;13.32;;
59127;SDS011;44912;52.754;5.994;2023-08-06T04:21:36;16.80;;;13.30;;
59127;SDS011;44912;52.754;5.994;2023-08-06T04:24:01;15.60;;;12.38;;
59127;SDS011;44912;52.754;5.994;2023-08-06T04:26:27;17.30;;;12.55;;
59127;SDS011;44912;52.754;5.994;2023-08-06T04:28:53;18.40;;;12.73;;
59127;SDS011;44912;52.754;5.994;2023-08-06T04:31:18;17.50;;;12.80;;
59127;SDS011;44912;52.754;5.994;2023-08-06T04:33:44;17.38;;;12.68;;
59127;SDS011;44912;52.754;5.994;2023-08-06T04:36:09;17.70;;;12.57;;
59127;SDS011;44912;52.754;5.994;2023-08-06T04:38:36;17.67;;;12.65;;
59127;SDS011;44912;52.754;5.994;2023-08-06T04:41:03;16.48;;;12.43;;
59127;SDS011;44912;52.754;5.994;2023-08-06T04:43:29;15.23;;;11.85;;
59127;SDS011;44912;52.754;5.994;2023-08-06T04:45:55;16.67;;;11.50;;
59127;SDS011;44912;52.754;5.994;2023-08-06T04:48:21;19.63;;;12.88;;
59127;SDS011;44912;52.754;5.994;2023-08-06T04:50:48;18.17;;;13.32;;
59127;SDS011;44912;52.754;5.994;2023-08-06T04:53:15;16.90;;;11.85;;
59127;SDS011;44912;52.754;5.994;2023-08-06T04:55:41;15.90;;;11.35;;
59127;SDS011;44912;52.754;5.994;2023-08-06T04:58:06;17.30;;;12.35;;
59127;SDS011;44912;52.754;5.994;2023-08-06T05:00:34;16.40;;;12.43;;
59127;SDS011;44912;52.754;5.994;2023-08-06T05:02:59;17.30;;;11.48;;
59127;SDS011;44912;52.754;5.994;2023-08-06T05:05:26;15.05;;;12.30;;
59127;SDS011;44912;52.754;5.994;2023-08-06T05:07:53;17.45;;;11.73;;
59127;SDS011;44912;52.754;5.994;2023-08-06T05:10:19;18.98;;;12.85;;
59127;SDS011;44912;52.754;5.994;2023-08-06T05:12:45;16.33;;;11.88;;
59127;SDS011;44912;52.754;5.994;2023-08-06T05:15:10;17.17;;;12.65;;
59127;SDS011;44912;52.754;5.994;2023-08-06T05:17:36;18.63;;;11.95;;
59127;SDS011;44912;52.754;5.994;2023-08-06T05:20:02;16.60;;;12.50;;
59127;SDS011;44912;52.754;5.994;2023-08-06T05:22:28;17.55;;;11.68;;
59127;SDS011;44912;52.754;5.994;2023-08-06T05:24:53;15.27;;;11.88;;
59127;SDS011;44912;52.754;5.994;2023-08-06T05:27:19;14.13;;;10.52;;
59127;SDS011;44912;52.754;5.994;2023-08-06T05:29:45;14.73;;;11.30;;
59127;SDS011;44912;52.754;5.994;2023-08-06T05:32:10;18.15;;;12.50;;
59127;SDS011;44912;52.754;5.994;2023-08-06T05:34:36;16.35;;;12.00;;
59127;SDS011;44912;52.754;5.994;2023-08-06T05:37:02;17.23;;;13.20;;
59127;SDS011;44912;52.754;5.994;2023-08-06T05:39:29;17.02;;;11.73;;
59127;SDS011;44912;52.754;5.994;2023-08-06T05:41:54;16.00;;;12.20;;
59127;SDS011;44912;52.754;5.994;2023-08-06T05:44:20;15.65;;;12.07;;
59127;SDS011;44912;52.754;5.994;2023-08-06T05:46:46;18.05;;;12.63;;
59127;SDS011;44912;52.754;5.994;2023-08-06T05:49:12;16.08;;;12.27;;
59127;SDS011;44912;52.754;5.994;2023-08-06T05:51:38;16.05;;;12.02;;
59127;SDS011;44912;52.754;5.994;2023-08-06T05:54:04;14.02;;;11.95;;
59127;SDS011;44912;52.754;5.994;2023-08-06T05:56:30;15.80;;;11.82;;
59127;SDS011;44912;52.754;5.994;2023-08-06T05:58:55;17.30;;;13.00;;
59127;SDS011;44912;52.754;5.994;2023-08-06T06:01:21;15.98;;;12.05;;
59127;SDS011;44912;52.754;5.994;2023-08-06T06:03:46;20.52;;;13.25;;
59127;SDS011;44912;52.754;5.994;2023-08-06T06:06:12;16.58;;;13.57;;
59127;SDS011;44912;52.754;5.994;2023-08-06T06:08:37;17.25;;;12.30;;
59127;SDS011;44912;52.754;5.994;2023-08-06T06:11:03;16.45;;;12.00;;
59127;SDS011;44912;52.754;5.994;2023-08-06T06:13:28;15.15;;;12.20;;
59127;SDS011;44912;52.754;5.994;2023-08-06T06:15:54;17.60;;;12.63;;
59127;SDS011;44912;52.754;5.994;2023-08-06T06:18:21;16.30;;;11.75;;
59127;SDS011;44912;52.754;5.994;2023-08-06T06:20:46;18.92;;;12.77;;
59127;SDS011;44912;52.754;5.994;2023-08-06T06:23:12;14.98;;;11.93;;
59127;SDS011;44912;52.754;5.994;2023-08-06T06:25:41;14.55;;;11.95;;
59127;SDS011;44912;52.754;5.994;2023-08-06T06:28:08;15.38;;;11.70;;
59127;SDS011;44912;52.754;5.994;2023-08-06T06:30:34;13.98;;;11.00;;
59127;SDS011;44912;52.754;5.994;2023-08-06T06:32:59;15.10;;;11.95;;
59127;SDS011;44912;52.754;5.994;2023-08-06T06:35:25;14.63;;;11.63;;
59127;SDS011;44912;52.754;5.994;2023-08-06T06:37:51;14.90;;;11.50;;
59127;SDS011;44912;52.754;5.994;2023-08-06T06:40:16;15.68;;;12.70;;
59127;SDS011;44912;52.754;5.994;2023-08-06T06:42:42;14.77;;;11.88;;
59127;SDS011;44912;52.754;5.994;2023-08-06T06:45:08;14.73;;;11.57;;
59127;SDS011;44912;52.754;5.994;2023-08-06T06:47:34;16.67;;;12.80;;
59127;SDS011;44912;52.754;5.994;2023-08-06T06:49:59;15.55;;;11.75;;
59127;SDS011;44912;52.754;5.994;2023-08-06T06:52:25;16.38;;;11.35;;
59127;SDS011;44912;52.754;5.994;2023-08-06T06:54:50;14.93;;;12.00;;
59127;SDS011;44912;52.754;5.994;2023-08-06T06:57:16;17.70;;;12.60;;
59127;SDS011;44912;52.754;5.994;2023-08-06T06:59:41;14.40;;;11.73;;
59127;SDS011;44912;52.754;5.994;2023-08-06T07:02:07;16.20;;;11.88;;
59127;SDS011;44912;52.754;5.994;2023-08-06T07:04:32;14.63;;;11.48;;
59127;SDS011;44912;52.754;5.994;2023-08-06T07:06:58;14.80;;;11.88;;
59127;SDS011;44912;52.754;5.994;2023-08-06T07:09:23;15.95;;;11.68;;
59127;SDS011;44912;52.754;5.994;2023-08-06T07:11:49;14.45;;;11.77;;
59127;SDS011;44912;52.754;5.994;2023-08-06T07:14:15;14.25;;;11.35;;
59127;SDS011;44912;52.754;5.994;2023-08-06T07:16:40;14.85;;;11.98;;
59127;SDS011;44912;52.754;5.994;2023-08-06T07:19:06;13.98;;;10.60;;
59127;SDS011;44912;52.754;5.994;2023-08-06T07:21:31;14.65;;;11.20;;
59127;SDS011;44912;52.754;5.994;2023-08-06T07:23:57;12.10;;;10.25;;
59127;SDS011;44912;52.754;5.994;2023-08-06T07:26:24;16.17;;;11.68;;
59127;SDS011;44912;52.754;5.994;2023-08-06T07:28:50;14.43;;;10.75;;
59127;SDS011;44912;52.754;5.994;2023-08-06T07:31:15;13.15;;;10.70;;
59127;SDS011;44912;52.754;5.994;2023-08-06T07:33:41;14.63;;;11.43;;
59127;SDS011;44912;52.754;5.994;2023-08-06T07:36:12;12.68;;;10.70;;
59127;SDS011;44912;52.754;5.994;2023-08-06T07:38:39;13.70;;;10.80;;
59127;SDS011;44912;52.754;5.994;2023-08-06T07:41:05;12.23;;;9.93;;
59127;SDS011;44912;52.754;5.994;2023-08-06T07:43:30;13.85;;;10.15;;
59127;SDS011;44912;52.754;5.994;2023-08-06T07:45:59;13.30;;;10.32;;
59127;SDS011;44912;52.754;5.994;2023-08-06T07:48:26;14.77;;;10.00;;
59127;SDS011;44912;52.754;5.994;2023-08-06T07:50:52;12.63;;;10.00;;
59127;SDS011;44912;52.754;5.994;2023-08-06T07:53:24;14.88;;;10.35;;
59127;SDS011;44912;52.754;5.994;2023-08-06T07:55:54;12.95;;;9.77;;
59127;SDS011;44912;52.754;5.994;2023-08-06T07:58:20;12.57;;;9.88;;
59127;SDS011;44912;52.754;5.994;2023-08-06T08:00:46;12.70;;;10.15;;
59127;SDS011;44912;52.754;5.994;2023-08-06T08:03:12;14.65;;;10.05;;
59127;SDS011;44912;52.754;5.994;2023-08-06T08:05:39;13.32;;;9.88;;
59127;SDS011;44912;52.754;5.994;2023-08-06T08:08:05;13.35;;;10.45;;
59127;SDS011;44912;52.754;5.994;2023-08-06T08:10:31;14.60;;;9.95;;
59127;SDS011;44912;52.754;5.994;2023-08-06T08:12:57;12.63;;;10.02;;
59127;SDS011;44912;52.754;5.994;2023-08-06T08:15:23;11.93;;;9.15;;
59127;SDS011;44912;52.754;5.994;2023-08-06T08:17:51;12.77;;;9.00;;
59127;SDS011;44912;52.754;5.994;2023-08-06T08:20:17;11.68;;;9.32;;
59127;SDS011;44912;52.754;5.994;2023-08-06T08:22:42;11.38;;;9.25;;
59127;SDS011;44912;52.754;5.994;2023-08-06T08:25:08;13.35;;;9.15;;
59127;SDS011;44912;52.754;5.994;2023-08-06T08:27:34;11.95;;;9.40;;
59127;SDS011;44912;52.754;5.994;2023-08-06T08:29:59;11.38;;;8.73;;
59127;SDS011;44912;52.754;5.994;2023-08-06T08:32:25;10.95;;;8.35;;
59127;SDS011;44912;52.754;5.994;2023-08-06T08:34:50;11.45;;;8.82;;
59127;SDS011;44912;52.754;5.994;2023-08-06T08:37:16;11.50;;;9.30;;
59127;SDS011;44912;52.754;5.994;2023-08-06T08:39:41;13.23;;;10.02;;
59127;SDS011;44912;52.754;5.994;2023-08-06T08:42:07;13.50;;;11.27;;
59127;SDS011;44912;52.754;5.994;2023-08-06T08:44:35;13.98;;;11.38;;
59127;SDS011;44912;52.754;5.994;2023-08-06T08:47:04;13.63;;;12.23;;
59127;SDS011;44912;52.754;5.994;2023-08-06T08:49:36;13.98;;;12.52;;
59127;SDS011;44912;52.754;5.994;2023-08-06T08:52:02;13.88;;;11.63;;
59127;SDS011;44912;52.754;5.994;2023-08-06T08:54:33;13.57;;;11.10;;
59127;SDS011;44912;52.754;5.994;2023-08-06T08:57:00;14.73;;;11.25;;
59127;SDS011;44912;52.754;5.994;2023-08-06T08:59:25;12.10;;;10.80;;
59127;SDS011;44912;52.754;5.994;2023-08-06T09:01:51;10.65;;;9.23;;
59127;SDS011;44912;52.754;5.994;2023-08-06T09:04:18;12.65;;;10.63;;
59127;SDS011;44912;52.754;5.994;2023-08-06T09:06:46;12.77;;;11.23;;
59127;SDS011;44912;52.754;5.994;2023-08-06T09:09:25;12.25;;;11.00;;
59127;SDS011;44912;52.754;5.994;2023-08-06T09:11:53;13.68;;;11.57;;
59127;SDS011;44912;52.754;5.994;2023-08-06T09:14:25;13.00;;;11.70;;
59127;SDS011;44912;52.754;5.994;2023-08-06T09:16:51;14.20;;;12.40;;
59127;SDS011;44912;52.754;5.994;2023-08-06T09:19:17;14.07;;;12.60;;
59127;SDS011;44912;52.754;5.994;2023-08-06T09:21:42;13.75;;;12.25;;
59127;SDS011;44912;52.754;5.994;2023-08-06T09:24:08;13.45;;;12.05;;
59127;SDS011;44912;52.754;5.994;2023-08-06T09:26:38;16.67;;;12.88;;
59127;SDS011;44912;52.754;5.994;2023-08-06T09:29:05;13.63;;;12.15;;
59127;SDS011;44912;52.754;5.994;2023-08-06T09:31:32;13.75;;;12.35;;
59127;SDS011;44912;52.754;5.994;2023-08-06T09:34:10;13.63;;;12.23;;
59127;SDS011;44912;52.754;5.994;2023-08-06T09:36:41;12.80;;;11.25;;
59127;SDS011;44912;52.754;5.994;2023-08-06T09:39:18;13.38;;;11.98;;
59127;SDS011;44912;52.754;5.994;2023-08-06T09:41:44;13.07;;;10.85;;
59127;SDS011;44912;52.754;5.994;2023-08-06T09:44:17;13.10;;;11.57;;
59127;SDS011;44912;52.754;5.994;2023-08-06T09:46:47;11.85;;;10.60;;
59127;SDS011;44912;52.754;5.994;2023-08-06T09:49:14;11.77;;;10.38;;
59127;SDS011;44912;52.754;5.994;2023-08-06T09:51:40;11.30;;;10.20;;
59127;SDS011;44912;52.754;5.994;2023-08-06T09:54:06;11.98;;;10.45;;
59127;SDS011;44912;52.754;5.994;2023-08-06T09:56:33;13.05;;;10.73;;
59127;SDS011;44912;52.754;5.994;2023-08-06T09:59:03;12.18;;;10.45;;
59127;SDS011;44912;52.754;5.994;2023-08-06T10:01:32;12.00;;;10.70;;
59127;SDS011;44912;52.754;5.994;2023-08-06T10:04:05;11.65;;;10.25;;
59127;SDS011;44912;52.754;5.994;2023-08-06T10:06:35;12.70;;;10.30;;
59127;SDS011;44912;52.754;5.994;2023-08-06T10:09:02;10.50;;;9.40;;
59127;SDS011;44912;52.754;5.994;2023-08-06T10:11:28;11.50;;;10.25;;
59127;SDS011;44912;52.754;5.994;2023-08-06T10:13:55;10.80;;;9.68;;
59127;SDS011;44912;52.754;5.994;2023-08-06T10:16:36;10.32;;;9.23;;
59127;SDS011;44912;52.754;5.994;2023-08-06T10:19:04;10.52;;;8.85;;
59127;SDS011;44912;52.754;5.994;2023-08-06T10:21:32;8.80;;;6.85;;
59127;SDS011;44912;52.754;5.994;2023-08-06T10:23:57;9.15;;;5.90;;
59127;SDS011;44912;52.754;5.994;2023-08-06T10:26:29;6.95;;;4.60;;
59127;SDS011;44912;52.754;5.994;2023-08-06T10:28:55;7.70;;;5.00;;
59127;SDS011;44912;52.754;5.994;2023-08-06T10:34:17;9.13;;;5.53;;
59127;SDS011;44912;52.754;5.994;2023-08-06T10:36:44;9.40;;;5.60;;
59127;SDS011;44912;52.754;5.994;2023-08-06T10:39:12;8.10;;;5.43;;
59127;SDS011;44912;52.754;5.994;2023-08-06T10:41:38;11.30;;;5.72;;
59127;SDS011;44912;52.754;5.994;2023-08-06T10:44:08;10.48;;;5.50;;
59127;SDS011;44912;52.754;5.994;2023-08-06T10:46:35;8.45;;;5.00;;
59127;SDS011;44912;52.754;5.994;2023-08-06T10:49:01;7.50;;;5.60;;
59127;SDS011;44912;52.754;5.994;2023-08-06T10:51:28;9.27;;;5.30;;
59127;SDS011;44912;52.754;5.994;2023-08-06T10:53:54;7.90;;;4.93;;
59127;SDS011;44912;52.754;5.994;2023-08-06T10:56:21;7.40;;;4.53;;
59127;SDS011;44912;52.754;5.994;2023-08-06T10:58:48;7.20;;;4.70;;
59127;SDS011;44912;52.754;5.994;2023-08-06T11:01:15;6.68;;;4.18;;
59127;SDS011;44912;52.754;5.994;2023-08-06T11:03:41;6.65;;;4.18;;
59127;SDS011;44912;52.754;5.994;2023-08-06T11:06:08;8.45;;;4.80;;
59127;SDS011;44912;52.754;5.994;2023-08-06T11:08:35;6.47;;;3.83;;
59127;SDS011;44912;52.754;5.994;2023-08-06T11:11:12;6.15;;;3.97;;
59127;SDS011;44912;52.754;5.994;2023-08-06T11:13:39;8.02;;;4.63;;
59127;SDS011;44912;52.754;5.994;2023-08-06T11:16:08;6.70;;;3.63;;
59127;SDS011;44912;52.754;5.994;2023-08-06T11:18:35;5.80;;;3.40;;
59127;SDS011;44912;52.754;5.994;2023-08-06T11:21:01;8.38;;;4.13;;
59127;SDS011;44912;52.754;5.994;2023-08-06T11:23:27;7.25;;;4.07;;
59127;SDS011;44912;52.754;5.994;2023-08-06T11:25:54;6.88;;;4.03;;
59127;SDS011;44912;52.754;5.994;2023-08-06T11:28:23;5.75;;;3.65;;
59127;SDS011;44912;52.754;5.994;2023-08-06T11:30:50;5.47;;;3.53;;
59127;SDS011;44912;52.754;5.994;2023-08-06T11:33:22;5.75;;;3.22;;
59127;SDS011;44912;52.754;5.994;2023-08-06T11:38:16;5.32;;;3.20;;
59127;SDS011;44912;52.754;5.994;2023-08-06T11:40:43;5.32;;;2.78;;
59127;SDS011;44912;52.754;5.994;2023-08-06T11:43:10;5.38;;;2.70;;
59127;SDS011;44912;52.754;5.994;2023-08-06T11:45:37;6.18;;;3.10;;
59127;SDS011;44912;52.754;5.994;2023-08-06T11:48:02;6.00;;;2.83;;
59127;SDS011;44912;52.754;5.994;2023-08-06T11:50:29;6.60;;;2.63;;
59127;SDS011;44912;52.754;5.994;2023-08-06T11:53:00;5.18;;;2.47;;
59127;SDS011;44912;52.754;5.994;2023-08-06T11:55:26;4.75;;;2.55;;
59127;SDS011;44912;52.754;5.994;2023-08-06T11:57:53;4.60;;;2.67;;
59127;SDS011;44912;52.754;5.994;2023-08-06T12:00:19;4.40;;;2.80;;
59127;SDS011;44912;52.754;5.994;2023-08-06T12:02:48;7.07;;;2.83;;
59127;SDS011;44912;52.754;5.994;2023-08-06T12:05:16;5.15;;;2.95;;
59127;SDS011;44912;52.754;5.994;2023-08-06T12:07:53;5.80;;;2.90;;
59127;SDS011;44912;52.754;5.994;2023-08-06T12:10:21;5.55;;;3.17;;
59127;SDS011;44912;52.754;5.994;2023-08-06T12:12:48;5.20;;;2.67;;
59127;SDS011;44912;52.754;5.994;2023-08-06T12:15:15;5.00;;;2.95;;
59127;SDS011;44912;52.754;5.994;2023-08-06T12:17:41;7.28;;;2.80;;
59127;SDS011;44912;52.754;5.994;2023-08-06T12:20:07;5.38;;;2.50;;
59127;SDS011;44912;52.754;5.994;2023-08-06T12:22:33;5.55;;;2.80;;
59127;SDS011;44912;52.754;5.994;2023-08-06T12:25:05;6.30;;;2.65;;
59127;SDS011;44912;52.754;5.994;2023-08-06T12:27:36;4.90;;;2.35;;
59127;SDS011;44912;52.754;5.994;2023-08-06T12:30:03;5.95;;;2.60;;
59127;SDS011;44912;52.754;5.994;2023-08-06T12:32:29;5.53;;;2.40;;
59127;SDS011;44912;52.754;5.994;2023-08-06T12:34:55;4.70;;;2.30;;
59127;SDS011;44912;52.754;5.994;2023-08-06T12:37:21;6.05;;;2.63;;
59127;SDS011;44912;52.754;5.994;2023-08-06T12:39:48;4.70;;;2.63;;
59127;SDS011;44912;52.754;5.994;2023-08-06T12:42:13;6.13;;;2.60;;
59127;SDS011;44912;52.754;5.994;2023-08-06T12:44:39;5.00;;;2.75;;
59127;SDS011;44912;52.754;5.994;2023-08-06T12:47:04;6.15;;;2.75;;
59127;SDS011;44912;52.754;5.994;2023-08-06T12:49:30;7.05;;;2.97;;
59127;SDS011;44912;52.754;5.994;2023-08-06T12:51:56;6.35;;;3.15;;
59127;SDS011;44912;52.754;5.994;2023-08-06T12:54:23;6.20;;;2.85;;
59127;SDS011;44912;52.754;5.994;2023-08-06T12:56:49;6.00;;;2.90;;
59127;SDS011;44912;52.754;5.994;2023-08-06T12:59:15;11.32;;;4.63;;
59127;SDS011;44912;52.754;5.994;2023-08-06T13:01:42;9.00;;;4.68;;
59127;SDS011;44912;52.754;5.994;2023-08-06T13:04:08;8.27;;;4.88;;
59127;SDS011;44912;52.754;5.994;2023-08-06T13:06:33;8.93;;;5.03;;
59127;SDS011;44912;52.754;5.994;2023-08-06T13:09:05;8.38;;;5.18;;
59127;SDS011;44912;52.754;5.994;2023-08-06T13:11:32;9.35;;;5.45;;
59127;SDS011;44912;52.754;5.994;2023-08-06T13:14:05;9.30;;;5.93;;
59127;SDS011;44912;52.754;5.994;2023-08-06T13:16:32;9.23;;;5.45;;
59127;SDS011;44912;52.754;5.994;2023-08-06T13:18:58;10.57;;;5.90;;
59127;SDS011;44912;52.754;5.994;2023-08-06T13:21:24;11.73;;;6.50;;
59127;SDS011;44912;52.754;5.994;2023-08-06T13:23:49;9.52;;;6.25;;
59127;SDS011;44912;52.754;5.994;2023-08-06T13:26:15;12.13;;;6.18;;
59127;SDS011;44912;52.754;5.994;2023-08-06T13:28:41;10.40;;;5.97;;
59127;SDS011;44912;52.754;5.994;2023-08-06T13:31:06;10.60;;;7.28;;
59127;SDS011;44912;52.754;5.994;2023-08-06T13:33:32;11.07;;;6.70;;
59127;SDS011;44912;52.754;5.994;2023-08-06T13:35:58;12.57;;;6.65;;
59127;SDS011;44912;52.754;5.994;2023-08-06T13:38:23;9.93;;;6.30;;
59127;SDS011;44912;52.754;5.994;2023-08-06T13:40:49;8.13;;;5.78;;
59127;SDS011;44912;52.754;5.994;2023-08-06T13:43:14;8.63;;;5.82;;
59127;SDS011;44912;52.754;5.994;2023-08-06T13:45:42;8.25;;;6.03;;
59127;SDS011;44912;52.754;5.994;2023-08-06T13:48:07;9.68;;;5.70;;
59127;SDS011;44912;52.754;5.994;2023-08-06T13:50:33;9.68;;;6.22;;
59127;SDS011;44912;52.754;5.994;2023-08-06T13:52:58;8.13;;;6.70;;
59127;SDS011;44912;52.754;5.994;2023-08-06T13:55:24;10.25;;;6.80;;
59127;SDS011;44912;52.754;5.994;2023-08-06T13:57:50;11.13;;;7.38;;
59127;SDS011;44912;52.754;5.994;2023-08-06T14:00:16;9.60;;;7.35;;
59127;SDS011;44912;52.754;5.994;2023-08-06T14:02:41;12.10;;;8.57;;
59127;SDS011;44912;52.754;5.994;2023-08-06T14:05:09;11.13;;;8.18;;
59127;SDS011;44912;52.754;5.994;2023-08-06T14:07:35;9.75;;;6.90;;
59127;SDS011;44912;52.754;5.994;2023-08-06T14:10:00;9.50;;;6.63;;
59127;SDS011;44912;52.754;5.994;2023-08-06T14:12:26;8.93;;;6.10;;
59127;SDS011;44912;52.754;5.994;2023-08-06T14:14:51;10.02;;;7.05;;
59127;SDS011;44912;52.754;5.994;2023-08-06T14:17:17;10.52;;;7.05;;
59127;SDS011;44912;52.754;5.994;2023-08-06T14:19:42;11.15;;;6.90;;
59127;SDS011;44912;52.754;5.994;2023-08-06T14:22:08;12.20;;;7.18;;
59127;SDS011;44912;52.754;5.994;2023-08-06T14:24:34;10.93;;;6.60;;
59127;SDS011;44912;52.754;5.994;2023-08-06T14:26:59;8.88;;;5.72;;
59127;SDS011;44912;52.754;5.994;2023-08-06T14:29:25;8.95;;;4.38;;
59127;SDS011;44912;52.754;5.994;2023-08-06T14:31:50;9.18;;;4.78;;
59127;SDS011;44912;52.754;5.994;2023-08-06T14:34:16;7.38;;;3.60;;
59127;SDS011;44912;52.754;5.994;2023-08-06T14:36:41;7.32;;;3.60;;
59127;SDS011;44912;52.754;5.994;2023-08-06T14:39:07;7.15;;;3.70;;